EXS2986 LEPA-EGGD
Flight info
| Callsign | EXS2986 |
|---|---|
| Flight time | N/A |
| Altitude | 34000 |
| Route | DRAGO N863 GIROM DCT AGN DCT SECHE DCT UVELI DCT CNA DCT MANAK DCT MUREL DCT NOZHU/N0440F350 DCT SHIRI DCT TOJAQ |
| Aircraft | A321/M-SDE3FGHIRWY/LB1 |
Departure
| Time | 2026-05-07 13:17 |
|---|---|
| Airport | Palma de Mallorca Airport (LEPA) |
Arrival
| Time | N/A |
|---|---|
| Airport | Bristol Airport (EGGD) |
| Time | Latitude | Longitude | Altitude | Speed | Heading |
|---|---|---|---|---|---|
| 2026-05-07 12:55 | 39.55067 | 2.73588 | 36 ft | 0 kts | 164° |
| 2026-05-07 13:02 | 39.55071 | 2.73587 | 36 ft | 3 kts | 164° |
| 2026-05-07 13:03 | 39.55073 | 2.73586 | 36 ft | 0 kts | 164° |
| 2026-05-07 13:03 | 39.55078 | 2.73584 | 36 ft | 3 kts | 164° |
| 2026-05-07 13:03 | 39.55096 | 2.73577 | 33 ft | 3 kts | 144° |
| 2026-05-07 13:04 | 39.55109 | 2.73559 | 32 ft | 3 kts | 114° |
| 2026-05-07 13:04 | 39.55114 | 2.73535 | 36 ft | 3 kts | 83° |
| 2026-05-07 13:04 | 39.55109 | 2.73511 | 32 ft | 3 kts | 53° |
| 2026-05-07 13:04 | 39.55095 | 2.73494 | 33 ft | 3 kts | 23° |
| 2026-05-07 13:05 | 39.55079 | 2.73483 | 35 ft | 3 kts | 44° |
| 2026-05-07 13:05 | 39.55073 | 2.73476 | 35 ft | 0 kts | 57° |
| 2026-05-07 13:07 | 39.55074 | 2.73478 | 36 ft | 3 kts | 59° |
| 2026-05-07 13:08 | 39.55123 | 2.73582 | 36 ft | 18 kts | 55° |
| 2026-05-07 13:09 | 39.55178 | 2.73695 | 36 ft | 5 kts | 63° |
| 2026-05-07 13:09 | 39.55155 | 2.73757 | 35 ft | 14 kts | 143° |
| 2026-05-07 13:09 | 39.55032 | 2.73858 | 36 ft | 24 kts | 148° |
| 2026-05-07 13:09 | 39.54895 | 2.73963 | 36 ft | 22 kts | 150° |
| 2026-05-07 13:10 | 39.54784 | 2.73931 | 36 ft | 17 kts | 238° |
| 2026-05-07 13:10 | 39.54727 | 2.73815 | 35 ft | 14 kts | 237° |
| 2026-05-07 13:10 | 39.54678 | 2.73714 | 36 ft | 14 kts | 238° |
| 2026-05-07 13:10 | 39.54625 | 2.73595 | 36 ft | 10 kts | 241° |
| 2026-05-07 13:11 | 39.54623 | 2.73590 | 36 ft | 1 kts | 241° |
| 2026-05-07 13:11 | 39.54600 | 2.73535 | 34 ft | 14 kts | 241° |
| 2026-05-07 13:11 | 39.54541 | 2.73407 | 36 ft | 17 kts | 235° |
| 2026-05-07 13:11 | 39.54481 | 2.73288 | 35 ft | 15 kts | 238° |
| 2026-05-07 13:12 | 39.54419 | 2.73206 | 36 ft | 11 kts | 174° |
| 2026-05-07 13:12 | 39.54357 | 2.73205 | 35 ft | 8 kts | 217° |
| 2026-05-07 13:12 | 39.54319 | 2.73155 | 36 ft | 7 kts | 231° |
| 2026-05-07 13:12 | 39.54268 | 2.73163 | 34 ft | 4 kts | 127° |
| 2026-05-07 13:13 | 39.54257 | 2.73190 | 36 ft | 3 kts | 113° |
| 2026-05-07 13:13 | 39.54253 | 2.73203 | 35 ft | 0 kts | 111° |
| 2026-05-07 13:15 | 39.54252 | 2.73208 | 35 ft | 4 kts | 109° |
| 2026-05-07 13:15 | 39.54231 | 2.73312 | 36 ft | 20 kts | 96° |
| 2026-05-07 13:15 | 39.54280 | 2.73496 | 34 ft | 22 kts | 58° |
| 2026-05-07 13:15 | 39.54342 | 2.73629 | 32 ft | 0 kts | 58° |
| 2026-05-07 13:16 | 39.54343 | 2.73632 | 32 ft | 3 kts | 58° |
| 2026-05-07 13:16 | 39.54466 | 2.73891 | 32 ft | 77 kts | 59° |
| 2026-05-07 13:16 | 39.54882 | 2.74765 | 33 ft | 149 kts | 59° |
| 2026-05-07 13:17 | 39.55487 | 2.76038 | 459 ft | 173 kts | 58° |
| 2026-05-07 13:17 | 39.56128 | 2.77425 | 1162 ft | 191 kts | 60° |
| 2026-05-07 13:17 | 39.56824 | 2.78963 | 2112 ft | 202 kts | 62° |
| 2026-05-07 13:17 | 39.57540 | 2.80547 | 3230 ft | 206 kts | 62° |
| 2026-05-07 13:18 | 39.58273 | 2.82165 | 4331 ft | 210 kts | 61° |
| 2026-05-07 13:18 | 39.59021 | 2.83811 | 5394 ft | 213 kts | 61° |
| 2026-05-07 13:18 | 39.59786 | 2.85491 | 6363 ft | 220 kts | 61° |
| 2026-05-07 13:18 | 39.60576 | 2.87219 | 7279 ft | 225 kts | 60° |
| 2026-05-07 13:19 | 39.61384 | 2.88988 | 7965 ft | 231 kts | 61° |
| 2026-05-07 13:19 | 39.62285 | 2.90724 | 8634 ft | 237 kts | 44° |
| 2026-05-07 13:19 | 39.63768 | 2.91664 | 9260 ft | 246 kts | 6° |
| 2026-05-07 13:19 | 39.65454 | 2.91244 | 9825 ft | 257 kts | 328° |
| 2026-05-07 13:20 | 39.66637 | 2.89569 | 10455 ft | 253 kts | 289° |
| 2026-05-07 13:20 | 39.66807 | 2.87383 | 11193 ft | 243 kts | 251° |
| 2026-05-07 13:20 | 39.65959 | 2.85546 | 11702 ft | 241 kts | 214° |
| 2026-05-07 13:20 | 39.64419 | 2.84779 | 12209 ft | 242 kts | 177° |
| 2026-05-07 13:21 | 39.62858 | 2.85442 | 12917 ft | 240 kts | 141° |
| 2026-05-07 13:21 | 39.61941 | 2.87226 | 13598 ft | 246 kts | 105° |
| 2026-05-07 13:21 | 39.62016 | 2.89488 | 14010 ft | 265 kts | 70° |
| 2026-05-07 13:21 | 39.63152 | 2.91411 | 14437 ft | 278 kts | 34° |
| 2026-05-07 13:22 | 39.64966 | 2.92200 | 15051 ft | 279 kts | 358° |
| 2026-05-07 13:22 | 39.66808 | 2.91589 | 15627 ft | 275 kts | 323° |
| 2026-05-07 13:22 | 39.68090 | 2.89800 | 16045 ft | 274 kts | 289° |
| 2026-05-07 13:22 | 39.68407 | 2.87429 | 16257 ft | 267 kts | 259° |
| 2026-05-07 13:23 | 39.68146 | 2.84954 | 15704 ft | 284 kts | 261° |
| 2026-05-07 13:23 | 39.68061 | 2.82415 | 16326 ft | 281 kts | 268° |
| 2026-05-07 13:23 | 39.68201 | 2.79885 | 17002 ft | 283 kts | 272° |
| 2026-05-07 13:23 | 39.68407 | 2.77339 | 17609 ft | 285 kts | 272° |
| 2026-05-07 13:24 | 39.68746 | 2.74776 | 18157 ft | 292 kts | 281° |
| 2026-05-07 13:24 | 39.69401 | 2.72179 | 18294 ft | 314 kts | 290° |
| 2026-05-07 13:24 | 39.70315 | 2.69511 | 18423 ft | 333 kts | 290° |
| 2026-05-07 13:24 | 39.71273 | 2.66692 | 18542 ft | 350 kts | 290° |
| 2026-05-07 13:25 | 39.72273 | 2.63729 | 18667 ft | 367 kts | 290° |
| 2026-05-07 13:25 | 39.73318 | 2.60625 | 18777 ft | 383 kts | 290° |
| 2026-05-07 13:25 | 39.74401 | 2.57413 | 19065 ft | 392 kts | 290° |
| 2026-05-07 13:25 | 39.75502 | 2.54156 | 19525 ft | 395 kts | 290° |
| 2026-05-07 13:26 | 39.76613 | 2.50875 | 20040 ft | 397 kts | 290° |
| 2026-05-07 13:26 | 39.77724 | 2.47580 | 20567 ft | 399 kts | 290° |
| 2026-05-07 13:26 | 39.78840 | 2.44275 | 21100 ft | 400 kts | 290° |
| 2026-05-07 13:26 | 39.79960 | 2.40955 | 21636 ft | 401 kts | 289° |
| 2026-05-07 13:27 | 39.80715 | 2.38705 | 21997 ft | 402 kts | 289° |
| 2026-05-07 13:27 | 39.81833 | 2.35371 | 22527 ft | 403 kts | 289° |
| 2026-05-07 13:27 | 39.83297 | 2.31007 | 23220 ft | 404 kts | 288° |
| 2026-05-07 13:27 | 39.83896 | 2.29198 | 23490 ft | 405 kts | 288° |
| 2026-05-07 13:28 | 39.84997 | 2.25825 | 23936 ft | 406 kts | 287° |
| 2026-05-07 13:28 | 39.86087 | 2.22440 | 24344 ft | 407 kts | 287° |
| 2026-05-07 13:28 | 39.87182 | 2.19024 | 24753 ft | 409 kts | 287° |
| 2026-05-07 13:28 | 39.88278 | 2.15598 | 25146 ft | 411 kts | 287° |
| 2026-05-07 13:29 | 39.89383 | 2.12156 | 25531 ft | 413 kts | 286° |
| 2026-05-07 13:29 | 39.90495 | 2.08700 | 25917 ft | 415 kts | 286° |
| 2026-05-07 13:29 | 39.91615 | 2.05225 | 26276 ft | 417 kts | 286° |
| 2026-05-07 13:29 | 39.92739 | 2.01734 | 26627 ft | 420 kts | 285° |
| 2026-05-07 13:30 | 39.93869 | 1.98213 | 26979 ft | 422 kts | 285° |
| 2026-05-07 13:30 | 39.95004 | 1.94674 | 27312 ft | 425 kts | 285° |
| 2026-05-07 13:30 | 39.96147 | 1.91109 | 27649 ft | 427 kts | 285° |
| 2026-05-07 13:30 | 39.97290 | 1.87525 | 27987 ft | 429 kts | 285° |
| 2026-05-07 13:31 | 39.98473 | 1.83932 | 28312 ft | 436 kts | 289° |
| 2026-05-07 13:31 | 40.00106 | 1.80536 | 28634 ft | 450 kts | 300° |
| 2026-05-07 13:31 | 40.02298 | 1.77541 | 28942 ft | 465 kts | 312° |
| 2026-05-07 13:31 | 40.05000 | 1.75105 | 29248 ft | 481 kts | 324° |
| 2026-05-07 13:32 | 40.08123 | 1.73391 | 29520 ft | 494 kts | 335° |
| 2026-05-07 13:32 | 40.11401 | 1.71994 | 29796 ft | 497 kts | 335° |
| 2026-05-07 13:32 | 40.14699 | 1.70591 | 30123 ft | 499 kts | 335° |
| 2026-05-07 13:32 | 40.17997 | 1.69186 | 30482 ft | 498 kts | 335° |
| 2026-05-07 13:33 | 40.21286 | 1.67774 | 30849 ft | 497 kts | 334° |
| 2026-05-07 13:33 | 40.24565 | 1.66356 | 31217 ft | 497 kts | 334° |
| 2026-05-07 13:33 | 40.27847 | 1.64935 | 31601 ft | 496 kts | 334° |
| 2026-05-07 13:33 | 40.31127 | 1.63518 | 31972 ft | 496 kts | 334° |
| 2026-05-07 13:34 | 40.34401 | 1.62105 | 32343 ft | 495 kts | 334° |
| 2026-05-07 13:34 | 40.40940 | 1.59278 | 33062 ft | 495 kts | 334° |
| 2026-05-07 13:34 | 40.44208 | 1.57857 | 33415 ft | 494 kts | 334° |
| 2026-05-07 13:35 | 40.47467 | 1.56438 | 33774 ft | 494 kts | 334° |
| 2026-05-07 13:35 | 40.50742 | 1.55010 | 33948 ft | 498 kts | 334° |
| 2026-05-07 13:35 | 40.54051 | 1.53564 | 33986 ft | 504 kts | 334° |
| 2026-05-07 13:36 | 40.60791 | 1.50615 | 33981 ft | 516 kts | 334° |
| 2026-05-07 13:36 | 40.67660 | 1.47617 | 33977 ft | 525 kts | 334° |
| 2026-05-07 13:37 | 40.74518 | 1.44647 | 33973 ft | 503 kts | 334° |
| 2026-05-07 13:37 | 40.77799 | 1.43235 | 33984 ft | 491 kts | 334° |
| 2026-05-07 13:37 | 40.81015 | 1.41839 | 33981 ft | 482 kts | 333° |
| 2026-05-07 13:38 | 40.87266 | 1.39094 | 33985 ft | 468 kts | 333° |
| 2026-05-07 13:38 | 40.93520 | 1.36290 | 33991 ft | 480 kts | 333° |
| 2026-05-07 13:39 | 40.99866 | 1.33465 | 33995 ft | 482 kts | 333° |
| 2026-05-07 13:39 | 41.06228 | 1.30660 | 34001 ft | 482 kts | 333° |
| 2026-05-07 13:40 | 41.12584 | 1.27861 | 34001 ft | 481 kts | 333° |
| 2026-05-07 13:40 | 41.18927 | 1.25048 | 34008 ft | 480 kts | 333° |
| 2026-05-07 13:41 | 41.25263 | 1.22226 | 34014 ft | 480 kts | 334° |
| 2026-05-07 13:41 | 41.31583 | 1.19406 | 34017 ft | 479 kts | 334° |
| 2026-05-07 13:42 | 41.37890 | 1.16588 | 34016 ft | 478 kts | 334° |
| 2026-05-07 13:42 | 41.44184 | 1.13778 | 34005 ft | 476 kts | 334° |
| 2026-05-07 13:43 | 41.50459 | 1.10963 | 33988 ft | 475 kts | 334° |
| 2026-05-07 13:43 | 41.56718 | 1.08143 | 33981 ft | 474 kts | 334° |
| 2026-05-07 13:44 | 41.62961 | 1.05328 | 33976 ft | 473 kts | 334° |
| 2026-05-07 13:44 | 41.69190 | 1.02512 | 33970 ft | 472 kts | 334° |
| 2026-05-07 13:45 | 41.75405 | 0.99701 | 33976 ft | 471 kts | 335° |
| 2026-05-07 13:45 | 41.81614 | 0.96902 | 33977 ft | 470 kts | 335° |
| 2026-05-07 13:46 | 41.87759 | 0.94119 | 33977 ft | 469 kts | 335° |
| 2026-05-07 13:46 | 41.93930 | 0.91301 | 33970 ft | 468 kts | 335° |
| 2026-05-07 13:47 | 42.00087 | 0.88487 | 33967 ft | 467 kts | 335° |
| 2026-05-07 13:47 | 42.06232 | 0.85677 | 33960 ft | 466 kts | 335° |
| 2026-05-07 13:48 | 42.12370 | 0.82864 | 33959 ft | 465 kts | 335° |
| 2026-05-07 13:48 | 42.18498 | 0.80058 | 33964 ft | 465 kts | 335° |
| 2026-05-07 13:49 | 42.24616 | 0.77249 | 33962 ft | 464 kts | 335° |
| 2026-05-07 13:49 | 42.30731 | 0.74432 | 33968 ft | 464 kts | 335° |
| 2026-05-07 13:50 | 42.36827 | 0.71618 | 33965 ft | 463 kts | 336° |
| 2026-05-07 13:50 | 42.42891 | 0.68814 | 33941 ft | 457 kts | 336° |
| 2026-05-07 13:51 | 42.48903 | 0.66034 | 33929 ft | 456 kts | 336° |
| 2026-05-07 13:51 | 42.54897 | 0.63250 | 33921 ft | 454 kts | 336° |
| 2026-05-07 13:52 | 42.60861 | 0.60467 | 33924 ft | 452 kts | 336° |
| 2026-05-07 13:52 | 42.66801 | 0.57696 | 33926 ft | 451 kts | 336° |
| 2026-05-07 13:53 | 42.72722 | 0.54932 | 33923 ft | 449 kts | 336° |
| 2026-05-07 13:53 | 42.78619 | 0.52171 | 33946 ft | 446 kts | 336° |
| 2026-05-07 13:54 | 42.84462 | 0.49435 | 33967 ft | 443 kts | 336° |
| 2026-05-07 13:54 | 42.90273 | 0.46707 | 33969 ft | 440 kts | 336° |
| 2026-05-07 13:55 | 42.96051 | 0.43989 | 33969 ft | 438 kts | 336° |
| 2026-05-07 13:55 | 43.01789 | 0.41285 | 33967 ft | 434 kts | 336° |
| 2026-05-07 13:56 | 43.07481 | 0.38593 | 33969 ft | 432 kts | 336° |
| 2026-05-07 13:56 | 43.13155 | 0.35896 | 33970 ft | 431 kts | 336° |
| 2026-05-07 13:57 | 43.18810 | 0.33204 | 33967 ft | 429 kts | 336° |
| 2026-05-07 13:57 | 43.24446 | 0.30527 | 33969 ft | 428 kts | 336° |
| 2026-05-07 13:58 | 43.30066 | 0.27849 | 33971 ft | 427 kts | 336° |
| 2026-05-07 13:58 | 43.35671 | 0.25169 | 33970 ft | 426 kts | 337° |
| 2026-05-07 13:59 | 43.41262 | 0.22500 | 33967 ft | 425 kts | 337° |
| 2026-05-07 13:59 | 43.46842 | 0.19827 | 33969 ft | 424 kts | 337° |
| 2026-05-07 14:00 | 43.52374 | 0.17165 | 33967 ft | 424 kts | 337° |
| 2026-05-07 14:00 | 43.57930 | 0.14479 | 33964 ft | 423 kts | 337° |
| 2026-05-07 14:01 | 43.63484 | 0.11809 | 33959 ft | 422 kts | 337° |
| 2026-05-07 14:01 | 43.69022 | 0.09145 | 33971 ft | 421 kts | 337° |
| 2026-05-07 14:02 | 43.74549 | 0.06465 | 33964 ft | 420 kts | 337° |
| 2026-05-07 14:02 | 43.80060 | 0.03779 | 33971 ft | 419 kts | 337° |
| 2026-05-07 14:03 | 43.85565 | 0.01111 | 33965 ft | 419 kts | 337° |
| 2026-05-07 14:03 | 43.91058 | -0.01555 | 33967 ft | 418 kts | 337° |
| 2026-05-07 14:04 | 43.96539 | -0.04227 | 33965 ft | 417 kts | 337° |
| 2026-05-07 14:04 | 44.02012 | -0.06900 | 33969 ft | 416 kts | 337° |
| 2026-05-07 14:05 | 44.07467 | -0.09574 | 33963 ft | 415 kts | 337° |
| 2026-05-07 14:05 | 44.12908 | -0.12247 | 33964 ft | 414 kts | 337° |
| 2026-05-07 14:06 | 44.18331 | -0.14906 | 33966 ft | 413 kts | 337° |
| 2026-05-07 14:06 | 44.23737 | -0.17573 | 33965 ft | 411 kts | 337° |
| 2026-05-07 14:07 | 44.29119 | -0.20238 | 33970 ft | 410 kts | 337° |
| 2026-05-07 14:07 | 44.34486 | -0.22894 | 33968 ft | 408 kts | 337° |
| 2026-05-07 14:08 | 44.39835 | -0.25543 | 33973 ft | 407 kts | 337° |
| 2026-05-07 14:08 | 44.45167 | -0.28190 | 33973 ft | 406 kts | 337° |
| 2026-05-07 14:09 | 44.50476 | -0.30831 | 33967 ft | 404 kts | 337° |
| 2026-05-07 14:09 | 44.55764 | -0.33468 | 33971 ft | 403 kts | 336° |
| 2026-05-07 14:10 | 44.60147 | -0.35659 | 33975 ft | 402 kts | 336° |
| 2026-05-07 14:10 | 44.66286 | -0.38726 | 33978 ft | 400 kts | 336° |
| 2026-05-07 14:11 | 44.70633 | -0.40909 | 33977 ft | 398 kts | 336° |
| 2026-05-07 14:11 | 44.75842 | -0.43529 | 33974 ft | 397 kts | 336° |
| 2026-05-07 14:12 | 44.81039 | -0.46132 | 33977 ft | 396 kts | 336° |
| 2026-05-07 14:12 | 44.86214 | -0.48735 | 33980 ft | 394 kts | 336° |
| 2026-05-07 14:13 | 44.91367 | -0.51340 | 33982 ft | 393 kts | 336° |
| 2026-05-07 14:13 | 44.96493 | -0.53941 | 33980 ft | 391 kts | 336° |
| 2026-05-07 14:14 | 45.01606 | -0.56531 | 33975 ft | 389 kts | 336° |
| 2026-05-07 14:14 | 45.06691 | -0.59116 | 33979 ft | 387 kts | 336° |
| 2026-05-07 14:15 | 45.11754 | -0.61695 | 33986 ft | 386 kts | 336° |
| 2026-05-07 14:15 | 45.16793 | -0.64261 | 33978 ft | 384 kts | 335° |
| 2026-05-07 14:16 | 45.21805 | -0.66817 | 33978 ft | 382 kts | 335° |
| 2026-05-07 14:16 | 45.26791 | -0.69364 | 33974 ft | 379 kts | 335° |
| 2026-05-07 14:17 | 45.31740 | -0.71898 | 33974 ft | 377 kts | 335° |
| 2026-05-07 14:17 | 45.36654 | -0.74435 | 33978 ft | 374 kts | 335° |
| 2026-05-07 14:18 | 45.41534 | -0.76948 | 33980 ft | 372 kts | 335° |
| 2026-05-07 14:18 | 45.46377 | -0.79439 | 33983 ft | 369 kts | 335° |
| 2026-05-07 14:19 | 45.51191 | -0.81927 | 33975 ft | 366 kts | 335° |
| 2026-05-07 14:19 | 45.55967 | -0.84401 | 33973 ft | 364 kts | 335° |
| 2026-05-07 14:20 | 45.60710 | -0.86858 | 33976 ft | 362 kts | 335° |
| 2026-05-07 14:20 | 45.65420 | -0.89299 | 33982 ft | 358 kts | 335° |
| 2026-05-07 14:21 | 45.70087 | -0.91725 | 33978 ft | 355 kts | 335° |
| 2026-05-07 14:21 | 45.74704 | -0.94135 | 33979 ft | 351 kts | 334° |
| 2026-05-07 14:22 | 45.79278 | -0.96517 | 33947 ft | 349 kts | 335° |
| 2026-05-07 14:22 | 45.83882 | -0.98850 | 33699 ft | 352 kts | 334° |
| 2026-05-07 14:22 | 45.86179 | -1.00114 | 33553 ft | 355 kts | 334° |
| 2026-05-07 14:23 | 45.88484 | -1.01357 | 33626 ft | 351 kts | 335° |
| 2026-05-07 14:23 | 45.90762 | -1.02532 | 33793 ft | 345 kts | 335° |
| 2026-05-07 14:23 | 45.93019 | -1.03708 | 33703 ft | 347 kts | 334° |
| 2026-05-07 14:23 | 45.95272 | -1.04997 | 33485 ft | 350 kts | 333° |
| 2026-05-07 14:24 | 45.97540 | -1.06314 | 33391 ft | 351 kts | 331° |
| 2026-05-07 14:24 | 45.99808 | -1.07688 | 33227 ft | 356 kts | 334° |
| 2026-05-07 14:24 | 46.02124 | -1.08887 | 33405 ft | 350 kts | 338° |
| 2026-05-07 14:24 | 46.04459 | -1.09885 | 33642 ft | 342 kts | 339° |
| 2026-05-07 14:25 | 46.06741 | -1.10843 | 33583 ft | 343 kts | 339° |
| 2026-05-07 14:25 | 46.09053 | -1.11885 | 33022 ft | 357 kts | 336° |
| 2026-05-07 14:25 | 46.11379 | -1.13156 | 32691 ft | 362 kts | 333° |
| 2026-05-07 14:25 | 46.13663 | -1.14589 | 33129 ft | 348 kts | 331° |
| 2026-05-07 14:26 | 46.15893 | -1.15939 | 33124 ft | 348 kts | 334° |
| 2026-05-07 14:26 | 46.20442 | -1.18340 | 33133 ft | 347 kts | 336° |
| 2026-05-07 14:27 | 46.24977 | -1.20649 | 33128 ft | 344 kts | 336° |
| 2026-05-07 14:27 | 46.29471 | -1.22973 | 33116 ft | 342 kts | 336° |
| 2026-05-07 14:28 | 46.34020 | -1.25087 | 32966 ft | 344 kts | 336° |
| 2026-05-07 14:28 | 46.38455 | -1.27625 | 32839 ft | 344 kts | 333° |
| 2026-05-07 14:29 | 46.42880 | -1.30133 | 32946 ft | 338 kts | 336° |
| 2026-05-07 14:29 | 46.47314 | -1.32453 | 32771 ft | 341 kts | 335° |
| 2026-05-07 14:30 | 46.51749 | -1.34930 | 32827 ft | 337 kts | 335° |
| 2026-05-07 14:30 | 46.56112 | -1.37338 | 32714 ft | 339 kts | 335° |
| 2026-05-07 14:30 | 46.58338 | -1.38540 | 32531 ft | 343 kts | 336° |
| 2026-05-07 14:31 | 46.60577 | -1.39719 | 32519 ft | 340 kts | 336° |
| 2026-05-07 14:31 | 46.65001 | -1.41960 | 32531 ft | 336 kts | 338° |
| 2026-05-07 14:31 | 46.67214 | -1.43056 | 32424 ft | 336 kts | 337° |
| 2026-05-07 14:32 | 46.69415 | -1.44208 | 32328 ft | 336 kts | 336° |
| 2026-05-07 14:32 | 46.71598 | -1.45427 | 32225 ft | 336 kts | 335° |
| 2026-05-07 14:32 | 46.73760 | -1.46711 | 32161 ft | 335 kts | 333° |
| 2026-05-07 14:33 | 46.78055 | -1.49496 | 32550 ft | 335 kts | 332° |
| 2026-05-07 14:33 | 46.80218 | -1.50731 | 32885 ft | 335 kts | 340° |
| 2026-05-07 14:33 | 46.82453 | -1.51626 | 32964 ft | 341 kts | 342° |
| 2026-05-07 14:34 | 46.87186 | -1.53285 | 32583 ft | 367 kts | 338° |
| 2026-05-07 14:34 | 46.89608 | -1.54664 | 31996 ft | 378 kts | 332° |
| 2026-05-07 14:34 | 46.91986 | -1.56342 | 31983 ft | 384 kts | 330° |
| 2026-05-07 14:35 | 46.96975 | -1.59793 | 31976 ft | 405 kts | 334° |
| 2026-05-07 14:35 | 47.02305 | -1.62916 | 31978 ft | 425 kts | 337° |
| 2026-05-07 14:36 | 47.08039 | -1.65964 | 31981 ft | 445 kts | 338° |
| 2026-05-07 14:36 | 47.13901 | -1.69082 | 31983 ft | 450 kts | 337° |
| 2026-05-07 14:37 | 47.19771 | -1.72287 | 31986 ft | 450 kts | 337° |
| 2026-05-07 14:37 | 47.28553 | -1.77168 | 31988 ft | 449 kts | 337° |
| 2026-05-07 14:38 | 47.34404 | -1.80422 | 31988 ft | 449 kts | 337° |
| 2026-05-07 14:38 | 47.40249 | -1.83657 | 31989 ft | 449 kts | 337° |
| 2026-05-07 14:39 | 47.46095 | -1.86902 | 31993 ft | 448 kts | 337° |
| 2026-05-07 14:39 | 47.51930 | -1.90156 | 31996 ft | 448 kts | 337° |
| 2026-05-07 14:40 | 47.57759 | -1.93422 | 32001 ft | 448 kts | 337° |
| 2026-05-07 14:40 | 47.63594 | -1.96693 | 32002 ft | 448 kts | 337° |
| 2026-05-07 14:41 | 47.69426 | -1.99967 | 32010 ft | 448 kts | 337° |
| 2026-05-07 14:41 | 47.75215 | -2.03220 | 32015 ft | 448 kts | 337° |
| 2026-05-07 14:42 | 47.81039 | -2.06513 | 32019 ft | 448 kts | 336° |
| 2026-05-07 14:42 | 47.86864 | -2.09811 | 32021 ft | 448 kts | 336° |
| 2026-05-07 14:43 | 47.92685 | -2.13110 | 32025 ft | 448 kts | 336° |
| 2026-05-07 14:43 | 47.98505 | -2.16422 | 32025 ft | 448 kts | 336° |
| 2026-05-07 14:44 | 48.04326 | -2.19745 | 32028 ft | 448 kts | 336° |
| 2026-05-07 14:44 | 48.10146 | -2.23067 | 32031 ft | 448 kts | 336° |
| 2026-05-07 14:45 | 48.15967 | -2.26399 | 32033 ft | 448 kts | 336° |
| 2026-05-07 14:45 | 48.21792 | -2.29735 | 32037 ft | 448 kts | 336° |
| 2026-05-07 14:46 | 48.27613 | -2.33088 | 32036 ft | 448 kts | 336° |
| 2026-05-07 14:46 | 48.33433 | -2.36457 | 32039 ft | 448 kts | 336° |
| 2026-05-07 14:47 | 48.39252 | -2.39823 | 32040 ft | 449 kts | 336° |
| 2026-05-07 14:47 | 48.45080 | -2.43201 | 32042 ft | 449 kts | 336° |
| 2026-05-07 14:48 | 48.50908 | -2.46592 | 32043 ft | 449 kts | 336° |
| 2026-05-07 14:48 | 48.56739 | -2.49986 | 32046 ft | 449 kts | 336° |
| 2026-05-07 14:49 | 48.62575 | -2.53395 | 32050 ft | 450 kts | 336° |
| 2026-05-07 14:49 | 48.68410 | -2.56808 | 32049 ft | 450 kts | 336° |
| 2026-05-07 14:50 | 48.73259 | -2.59657 | 32050 ft | 450 kts | 336° |
| 2026-05-07 14:50 | 48.79097 | -2.63096 | 32050 ft | 450 kts | 336° |
| 2026-05-07 14:51 | 48.84930 | -2.66544 | 32059 ft | 450 kts | 336° |
| 2026-05-07 14:51 | 48.90768 | -2.69991 | 32062 ft | 450 kts | 336° |
| 2026-05-07 14:52 | 48.96604 | -2.73441 | 32064 ft | 450 kts | 336° |
| 2026-05-07 14:52 | 49.02438 | -2.76914 | 32066 ft | 450 kts | 336° |
| 2026-05-07 14:53 | 49.08269 | -2.80392 | 32073 ft | 450 kts | 336° |
| 2026-05-07 14:53 | 49.14104 | -2.83861 | 32076 ft | 450 kts | 336° |
| 2026-05-07 14:54 | 49.19938 | -2.87361 | 32079 ft | 450 kts | 336° |
| 2026-05-07 14:54 | 49.25769 | -2.90869 | 32081 ft | 450 kts | 336° |
| 2026-05-07 14:55 | 49.31602 | -2.94376 | 32089 ft | 450 kts | 336° |
| 2026-05-07 14:55 | 49.37438 | -2.97890 | 32087 ft | 450 kts | 336° |
| 2026-05-07 14:56 | 49.43266 | -3.01413 | 32091 ft | 450 kts | 336° |
| 2026-05-07 14:56 | 49.49088 | -3.04945 | 32089 ft | 450 kts | 336° |
| 2026-05-07 14:57 | 49.54905 | -3.08494 | 32098 ft | 450 kts | 336° |
| 2026-05-07 14:57 | 49.60685 | -3.12006 | 32096 ft | 449 kts | 336° |
| 2026-05-07 14:58 | 49.66494 | -3.15550 | 32101 ft | 449 kts | 336° |
| 2026-05-07 14:58 | 49.72302 | -3.19105 | 32103 ft | 449 kts | 336° |
| 2026-05-07 14:59 | 49.78107 | -3.22662 | 32108 ft | 448 kts | 336° |
| 2026-05-07 14:59 | 49.83903 | -3.26239 | 32111 ft | 448 kts | 336° |
| 2026-05-07 15:00 | 49.89695 | -3.29826 | 32113 ft | 448 kts | 336° |
| 2026-05-07 15:00 | 49.95485 | -3.33405 | 32117 ft | 448 kts | 336° |
| 2026-05-07 15:01 | 50.01275 | -3.36991 | 31984 ft | 449 kts | 336° |
| 2026-05-07 15:01 | 50.04219 | -3.38825 | 30555 ft | 466 kts | 336° |
| 2026-05-07 15:01 | 50.07280 | -3.40739 | 29096 ft | 479 kts | 336° |
| 2026-05-07 15:02 | 50.10394 | -3.42688 | 27808 ft | 485 kts | 336° |
| 2026-05-07 15:02 | 50.13538 | -3.44652 | 26595 ft | 489 kts | 336° |
| 2026-05-07 15:02 | 50.16707 | -3.46633 | 25394 ft | 492 kts | 336° |
| 2026-05-07 15:02 | 50.19881 | -3.48622 | 24471 ft | 490 kts | 336° |
| 2026-05-07 15:03 | 50.23020 | -3.50588 | 23873 ft | 482 kts | 336° |
| 2026-05-07 15:03 | 50.26109 | -3.52522 | 23183 ft | 476 kts | 336° |
| 2026-05-07 15:03 | 50.29168 | -3.54436 | 22422 ft | 471 kts | 336° |
| 2026-05-07 15:03 | 50.32227 | -3.56356 | 21662 ft | 465 kts | 336° |
| 2026-05-07 15:04 | 50.35213 | -3.58238 | 20931 ft | 460 kts | 336° |
| 2026-05-07 15:04 | 50.38169 | -3.60107 | 20225 ft | 455 kts | 336° |
| 2026-05-07 15:04 | 50.41054 | -3.61932 | 19545 ft | 451 kts | 336° |
| 2026-05-07 15:04 | 50.43986 | -3.63791 | 18873 ft | 447 kts | 336° |
| 2026-05-07 15:05 | 50.46934 | -3.65279 | 18215 ft | 445 kts | 346° |
| 2026-05-07 15:05 | 50.49994 | -3.65903 | 17499 ft | 443 kts | 356° |
| 2026-05-07 15:05 | 50.53057 | -3.65658 | 16805 ft | 440 kts | 6° |
| 2026-05-07 15:05 | 50.56071 | -3.65069 | 15968 ft | 429 kts | 6° |
| 2026-05-07 15:06 | 50.59003 | -3.64504 | 14537 ft | 421 kts | 6° |
| 2026-05-07 15:06 | 50.61883 | -3.63955 | 13074 ft | 413 kts | 6° |
| 2026-05-07 15:06 | 50.64710 | -3.63422 | 11614 ft | 405 kts | 6° |
| 2026-05-07 15:06 | 50.67486 | -3.62900 | 10256 ft | 398 kts | 6° |
| 2026-05-07 15:07 | 50.70208 | -3.62387 | 8843 ft | 390 kts | 6° |
| 2026-05-07 15:07 | 50.72878 | -3.61882 | 7462 ft | 382 kts | 6° |
| 2026-05-07 15:07 | 50.75484 | -3.61386 | 6307 ft | 371 kts | 7° |
| 2026-05-07 15:07 | 50.77919 | -3.60914 | 6056 ft | 335 kts | 7° |
| 2026-05-07 15:08 | 50.80079 | -3.60494 | 6036 ft | 299 kts | 7° |
| 2026-05-07 15:08 | 50.82086 | -3.60104 | 6050 ft | 286 kts | 7° |
| 2026-05-07 15:08 | 50.84077 | -3.59720 | 6058 ft | 284 kts | 7° |
| 2026-05-07 15:08 | 50.86031 | -3.59345 | 6048 ft | 283 kts | 6° |
| 2026-05-07 15:09 | 50.87963 | -3.58975 | 6056 ft | 283 kts | 7° |
| 2026-05-07 15:09 | 50.89946 | -3.58590 | 6034 ft | 283 kts | 8° |
| 2026-05-07 15:09 | 50.91835 | -3.57899 | 6025 ft | 283 kts | 18° |
| 2026-05-07 15:09 | 50.93668 | -3.56702 | 5295 ft | 285 kts | 30° |
| 2026-05-07 15:10 | 50.95294 | -3.55024 | 5059 ft | 277 kts | 39° |
| 2026-05-07 15:10 | 50.96699 | -3.53020 | 4977 ft | 267 kts | 49° |
| 2026-05-07 15:10 | 50.97975 | -3.50893 | 4982 ft | 266 kts | 48° |
| 2026-05-07 15:10 | 50.99257 | -3.48770 | 4982 ft | 266 kts | 48° |
| 2026-05-07 15:11 | 51.00537 | -3.46656 | 4983 ft | 266 kts | 48° |
| 2026-05-07 15:11 | 51.01815 | -3.44543 | 4980 ft | 266 kts | 48° |
| 2026-05-07 15:11 | 51.03095 | -3.42425 | 4977 ft | 266 kts | 48° |
| 2026-05-07 15:11 | 51.04458 | -3.40433 | 4983 ft | 268 kts | 38° |
| 2026-05-07 15:12 | 51.06045 | -3.38897 | 4974 ft | 268 kts | 26° |
| 2026-05-07 15:12 | 51.07802 | -3.37877 | 4979 ft | 270 kts | 14° |
| 2026-05-07 15:12 | 51.09646 | -3.37398 | 4976 ft | 269 kts | 6° |
| 2026-05-07 15:12 | 51.11510 | -3.37087 | 4959 ft | 271 kts | 6° |
| 2026-05-07 15:13 | 51.13420 | -3.36760 | 4240 ft | 279 kts | 6° |
| 2026-05-07 15:13 | 51.15252 | -3.36154 | 4029 ft | 265 kts | 20° |
| 2026-05-07 15:13 | 51.16909 | -3.34917 | 3988 ft | 263 kts | 34° |
| 2026-05-07 15:13 | 51.18340 | -3.33123 | 3991 ft | 261 kts | 47° |
| 2026-05-07 15:14 | 51.19468 | -3.30876 | 3993 ft | 259 kts | 61° |
| 2026-05-07 15:14 | 51.20302 | -3.28339 | 3997 ft | 259 kts | 66° |
| 2026-05-07 15:14 | 51.21112 | -3.25778 | 3993 ft | 258 kts | 65° |
| 2026-05-07 15:14 | 51.21924 | -3.23224 | 3996 ft | 259 kts | 65° |
| 2026-05-07 15:15 | 51.22739 | -3.20664 | 3997 ft | 259 kts | 65° |
| 2026-05-07 15:15 | 51.23555 | -3.18098 | 3996 ft | 259 kts | 65° |
| 2026-05-07 15:15 | 51.24372 | -3.15527 | 3996 ft | 260 kts | 65° |
| 2026-05-07 15:15 | 51.25159 | -3.13045 | 3994 ft | 259 kts | 65° |
| 2026-05-07 15:16 | 51.25976 | -3.10473 | 3994 ft | 259 kts | 65° |
| 2026-05-07 15:16 | 51.26791 | -3.07907 | 3990 ft | 259 kts | 65° |
| 2026-05-07 15:16 | 51.27606 | -3.05341 | 3991 ft | 259 kts | 65° |
| 2026-05-07 15:16 | 51.28419 | -3.02772 | 3973 ft | 259 kts | 65° |
| 2026-05-07 15:17 | 51.29230 | -3.00204 | 3975 ft | 259 kts | 65° |
| 2026-05-07 15:17 | 51.30040 | -2.97636 | 3976 ft | 259 kts | 65° |
| 2026-05-07 15:17 | 51.30852 | -2.95059 | 3981 ft | 260 kts | 65° |
| 2026-05-07 15:17 | 51.31661 | -2.92481 | 3979 ft | 259 kts | 65° |
| 2026-05-07 15:18 | 51.32471 | -2.89903 | 3980 ft | 260 kts | 65° |
| 2026-05-07 15:18 | 51.33282 | -2.87319 | 3984 ft | 260 kts | 65° |
| 2026-05-07 15:18 | 51.34093 | -2.84734 | 3981 ft | 260 kts | 65° |
| 2026-05-07 15:18 | 51.34900 | -2.82154 | 3980 ft | 260 kts | 66° |
| 2026-05-07 15:19 | 51.35706 | -2.79567 | 3979 ft | 260 kts | 65° |
| 2026-05-07 15:19 | 51.36505 | -2.76999 | 3979 ft | 259 kts | 65° |
| 2026-05-07 15:19 | 51.37284 | -2.74516 | 3975 ft | 242 kts | 65° |
| 2026-05-07 15:19 | 51.38034 | -2.72128 | 3978 ft | 239 kts | 65° |
| 2026-05-07 15:20 | 51.38906 | -2.69877 | 3976 ft | 240 kts | 43° |
| 2026-05-07 15:20 | 51.40386 | -2.68764 | 3983 ft | 240 kts | 2° |
| 2026-05-07 15:20 | 51.41954 | -2.69404 | 4069 ft | 234 kts | 316° |
| 2026-05-07 15:20 | 51.42769 | -2.71570 | 4453 ft | 237 kts | 276° |
| 2026-05-07 15:21 | 51.42410 | -2.74056 | 3968 ft | 235 kts | 229° |
| 2026-05-07 15:21 | 51.41181 | -2.75751 | 3664 ft | 230 kts | 217° |
| 2026-05-07 15:21 | 51.39956 | -2.77290 | 3650 ft | 220 kts | 217° |
| 2026-05-07 15:21 | 51.38796 | -2.78892 | 3651 ft | 220 kts | 228° |
| 2026-05-07 15:22 | 51.38012 | -2.80992 | 3651 ft | 223 kts | 249° |
| 2026-05-07 15:22 | 51.37747 | -2.83447 | 3656 ft | 226 kts | 265° |
| 2026-05-07 15:22 | 51.37669 | -2.85964 | 3657 ft | 226 kts | 264° |
| 2026-05-07 15:22 | 51.37582 | -2.88476 | 3659 ft | 226 kts | 263° |
| 2026-05-07 15:23 | 51.37492 | -2.90995 | 3654 ft | 227 kts | 264° |
| 2026-05-07 15:23 | 51.37404 | -2.93476 | 3652 ft | 224 kts | 263° |
| 2026-05-07 15:23 | 51.37321 | -2.95884 | 3672 ft | 203 kts | 264° |
| 2026-05-07 15:23 | 51.37253 | -2.97993 | 3677 ft | 187 kts | 264° |
| 2026-05-07 15:24 | 51.37183 | -3.00055 | 3657 ft | 185 kts | 263° |
| 2026-05-07 15:24 | 51.37114 | -3.02092 | 3399 ft | 181 kts | 263° |
| 2026-05-07 15:24 | 51.36840 | -3.03977 | 2937 ft | 161 kts | 237° |
| 2026-05-07 15:24 | 51.36133 | -3.05191 | 2967 ft | 144 kts | 211° |
| 2026-05-07 15:25 | 51.35215 | -3.05710 | 2982 ft | 139 kts | 185° |
| 2026-05-07 15:25 | 51.34269 | -3.05509 | 2988 ft | 139 kts | 161° |
| 2026-05-07 15:25 | 51.33470 | -3.04635 | 2988 ft | 142 kts | 136° |
| 2026-05-07 15:25 | 51.32995 | -3.03234 | 2978 ft | 147 kts | 109° |
| 2026-05-07 15:26 | 51.32990 | -3.01588 | 2980 ft | 152 kts | 79° |
| 2026-05-07 15:26 | 51.33474 | -3.00063 | 2981 ft | 156 kts | 60° |
| 2026-05-07 15:26 | 51.34060 | -2.98606 | 2983 ft | 156 kts | 60° |
| 2026-05-07 15:26 | 51.34643 | -2.97144 | 2981 ft | 156 kts | 61° |
| 2026-05-07 15:27 | 51.35227 | -2.95681 | 2980 ft | 156 kts | 60° |
| 2026-05-07 15:27 | 51.35811 | -2.94217 | 2984 ft | 156 kts | 60° |
| 2026-05-07 15:27 | 51.36397 | -2.92748 | 2737 ft | 160 kts | 60° |
| 2026-05-07 15:27 | 51.37023 | -2.91173 | 2081 ft | 174 kts | 60° |
| 2026-05-07 15:28 | 51.37524 | -2.89520 | 1947 ft | 157 kts | 80° |
| 2026-05-07 15:28 | 51.37633 | -2.87826 | 1976 ft | 152 kts | 91° |
| 2026-05-07 15:28 | 51.37701 | -2.86146 | 1980 ft | 151 kts | 90° |
| 2026-05-07 15:28 | 51.37774 | -2.84472 | 1957 ft | 150 kts | 89° |
| 2026-05-07 15:29 | 51.37895 | -2.82815 | 1783 ft | 150 kts | 87° |
| 2026-05-07 15:29 | 51.38011 | -2.81161 | 1664 ft | 150 kts | 88° |
| 2026-05-07 15:29 | 51.38066 | -2.79506 | 1485 ft | 148 kts | 95° |
| 2026-05-07 15:29 | 51.38088 | -2.77847 | 1182 ft | 149 kts | 92° |
| 2026-05-07 15:30 | 51.38121 | -2.76211 | 850 ft | 146 kts | 91° |
| 2026-05-07 15:30 | 51.38168 | -2.74590 | 813 ft | 149 kts | 89° |
| 2026-05-07 15:30 | 51.38226 | -2.72957 | 630 ft | 145 kts | 87° |
| 2026-05-07 15:30 | 51.38253 | -2.71898 | 629 ft | 139 kts | 89° |